Time;durP1;ratioP1;P1;durP2;ratioP2;P2;SDS_P1;SDS_P2;PMS_P1;PMS_P2;Temp;Humidity;BMP_temperature;BMP_pressure;BME280_temperature;BME280_humidity;BME280_pressure;Samples;Min_cycle;Max_cycle;Signal;HPM_P1;HPM_P2
2019/04/25 00:02:11;;;;;;;3.6;1.7;;;;;;;12.61;59.85156;955.5531;;;;
2019/04/25 00:04:30;;;;;;;3.8;1.8;;;;;;;12.56;60.21777;955.5338;;;;
2019/04/25 00:07:03;;;;;;;5.3;2.1;;;;;;;12.54;60.05273;955.5535;;;;
2019/04/25 00:09:30;;;;;;;4.6;1.9;;;;;;;12.42;60.45508;955.5952;;;;
2019/04/25 00:11:53;;;;;;;5.3;1.9;;;;;;;12.22;59.89063;955.6736;;;;
2019/04/25 00:14:39;;;;;;;3.7;1.8;;;;;;;12.15;58.38477;955.6518;;;;
2019/04/25 00:17:05;;;;;;;3.5;1.9;;;;;;;12.07;59.94043;955.7438;;;;
2019/04/25 00:19:34;;;;;;;3.9;2;;;;;;;12.06;60.8916;955.7575;;;;
2019/04/25 00:22:08;;;;;;;5.7;2.1;;;;;;;11.92;63.01855;955.7506;;;;
2019/04/25 00:27:22;;;;;;;3.9;2;;;;;;;11.99;61.83301;955.7498;;;;
2019/04/25 00:29:53;;;;;;;4.7;2;;;;;;;11.87;62.76758;955.7231;;;;
2019/04/25 00:32:21;;;;;;;5.6;2.2;;;;;;;11.82;63.33984;955.8325;;;;
2019/04/25 00:34:49;;;;;;;7.7;1.9;;;;;;;11.7;63.64746;955.7916;;;;
2019/04/25 00:37:22;;;;;;;4.1;1.9;;;;;;;11.84;62.60059;955.8384;;;;
2019/04/25 00:39:47;;;;;;;3.9;2;;;;;;;11.81;62.77148;955.9231;;;;
2019/04/25 00:42:12;;;;;;;4.1;2;;;;;;;11.77;63.47266;955.8934;;;;
2019/04/25 00:44:50;;;;;;;2.9;1.9;;;;;;;11.79;63.78906;955.9419;;;;
2019/04/25 00:47:15;;;;;;;3.1;1.8;;;;;;;11.82;64.19824;955.9518;;;;
2019/04/25 00:49:58;;;;;;;4.8;2.1;;;;;;;11.85;64.14551;955.9647;;;;
2019/04/25 00:52:23;;;;;;;3.8;1.7;;;;;;;11.85;64.18066;955.9431;;;;
2019/04/25 00:54:55;;;;;;;3.1;1.8;;;;;;;11.87;63.88086;955.9628;;;;
2019/04/25 00:57:34;;;;;;;5.7;2.3;;;;;;;11.81;64.33789;955.9824;;;;
2019/04/25 01:00:16;;;;;;;3.5;1.9;;;;;;;11.77;64.01758;955.9664;;;;
2019/04/25 01:02:39;;;;;;;7.5;2.2;;;;;;;11.59;64.85059;955.8862;;;;
2019/04/25 01:04:54;;;;;;;3.6;2.1;;;;;;;11.56;65.00781;955.9797;;;;
2019/04/25 01:07:19;;;;;;;4.7;2;;;;;;;11.6;64.80469;955.975;;;;
2019/04/25 01:09:48;;;;;;;4.7;1.8;;;;;;;11.5;65.56641;955.9886;;;;
2019/04/25 01:12:16;;;;;;;5.5;2.3;;;;;;;11.51;65.12695;955.9739;;;;
2019/04/25 01:14:57;;;;;;;4.6;2.3;;;;;;;11.51;65.03418;955.897;;;;
2019/04/25 01:17:25;;;;;;;5.1;2.1;;;;;;;11.45;65.41895;955.9431;;;;
2019/04/25 01:19:50;;;;;;;5.6;1.9;;;;;;;11.49;65.14746;955.8693;;;;
2019/04/25 01:22:17;;;;;;;3;2;;;;;;;11.5;64.87109;955.8042;;;;
2019/04/25 01:24:49;;;;;;;4.3;1.9;;;;;;;11.53;64.82813;955.7492;;;;
2019/04/25 01:27:14;;;;;;;5.7;2.3;;;;;;;11.52;64.72461;955.8103;;;;
2019/04/25 01:29:40;;;;;;;3.5;2.1;;;;;;;11.53;64.89844;955.8261;;;;
2019/04/25 01:32:12;;;;;;;4;2.4;;;;;;;11.53;65.47949;955.9454;;;;
2019/04/25 01:35:01;;;;;;;5.4;2.2;;;;;;;11.54;64.91113;955.8853;;;;
2019/04/25 01:37:29;;;;;;;7;2.2;;;;;;;11.54;64.41211;955.8505;;;;
2019/04/25 01:46:30;;;;;;;4.7;2.1;;;;;;;11.53;64.71289;955.8222;;;;
2019/04/25 01:48:55;;;;;;;4.5;2.4;;;;;;;11.51;65.05762;955.752;;;;
2019/04/25 01:51:28;;;;;;;5;2;;;;;;;11.5;64.74316;955.7057;;;;
2019/04/25 01:53:53;;;;;;;2.9;1.8;;;;;;;11.53;62.96191;955.5914;;;;
2019/04/25 01:56:18;;;;;;;3.8;1.7;;;;;;;11.47;59.97461;955.6799;;;;
2019/04/25 01:58:43;;;;;;;3.9;2.1;;;;;;;11.41;62.18066;955.6702;;;;
2019/04/25 02:01:10;;;;;;;4.6;2.2;;;;;;;11.32;64.62305;955.6953;;;;
2019/04/25 02:03:35;;;;;;;2.6;1.9;;;;;;;11.35;64.34961;955.7339;;;;
2019/04/25 02:06:10;;;;;;;5.6;2.3;;;;;;;11.36;64.94336;955.7704;;;;
2019/04/25 02:08:46;;;;;;;5.7;2.3;;;;;;;11.37;65.54785;955.8247;;;;
2019/04/25 02:13:46;;;;;;;6.1;2.4;;;;;;;11.43;65.71777;955.9203;;;;
2019/04/25 02:16:14;;;;;;;4.5;2.3;;;;;;;11.5;64.40723;955.8427;;;;
2019/04/25 02:18:41;;;;;;;3.1;2.1;;;;;;;11.5;63.5957;955.9028;;;;
2019/04/25 02:21:08;;;;;;;3.6;2;;;;;;;11.4;64.70508;955.9106;;;;
2019/04/25 02:23:33;;;;;;;2.5;2;;;;;;;11.4;62.99023;955.9363;;;;
2019/04/25 02:25:58;;;;;;;5.1;2.1;;;;;;;11.34;63.78027;955.9438;;;;
2019/04/25 02:28:23;;;;;;;4.8;2.3;;;;;;;11.3;64.97949;955.997;;;;
2019/04/25 02:30:48;;;;;;;4.8;2.2;;;;;;;11.25;65.41406;955.9722;;;;
2019/04/25 02:33:13;;;;;;;4.4;2.1;;;;;;;11.2;63.96777;955.962;;;;
2019/04/25 02:35:39;;;;;;;3.6;2.1;;;;;;;11.19;64.24316;955.9681;;;;
2019/04/25 02:38:04;;;;;;;4.4;2.4;;;;;;;11.22;63.32227;955.9514;;;;
2019/04/25 02:40:29;;;;;;;3.8;2.2;;;;;;;11.21;64.46777;955.9394;;;;
2019/04/25 02:42:55;;;;;;;3.9;2.4;;;;;;;11.16;65.0752;955.9414;;;;
2019/04/25 02:50:30;;;;;;;4.4;2.3;;;;;;;11.13;63.58691;955.8644;;;;
2019/04/25 02:52:41;;;;;;;3.4;2.5;;;;;;;11.05;64.81445;955.9253;;;;
2019/04/25 02:55:03;;;;;;;5.8;2.7;;;;;;;11.03;64.9873;955.8976;;;;
2019/04/25 02:57:35;;;;;;;7.2;2.9;;;;;;;10.96;66.66699;956.0302;;;;
2019/04/25 03:00:05;;;;;;;5;3.1;;;;;;;10.98;66.62305;956.0234;;;;
2019/04/25 03:02:29;;;;;;;4.6;2.6;;;;;;;11.01;65.3418;955.99;;;;
2019/04/25 03:04:54;;;;;;;5.5;2.7;;;;;;;11;64.92188;955.9407;;;;
2019/04/25 03:07:20;;;;;;;5.3;2.6;;;;;;;10.98;65.38281;955.9603;;;;
2019/04/25 03:09:48;;;;;;;5.5;2.8;;;;;;;10.89;66.17969;955.9246;;;;
2019/04/25 03:12:18;;;;;;;6.2;2.7;;;;;;;10.84;66.9834;955.9048;;;;
2019/04/25 03:14:41;;;;;;;4.6;2.7;;;;;;;10.73;67.98535;955.9191;;;;
2019/04/25 03:17:14;;;;;;;4.3;2.7;;;;;;;10.79;67.20703;955.8602;;;;
2019/04/25 03:22:05;;;;;;;8.7;3;;;;;;;10.77;67.49316;955.8541;;;;
2019/04/25 03:24:32;;;;;;;5.7;3.5;;;;;;;10.77;68.62598;955.8373;;;;
2019/04/25 03:26:58;;;;;;;7.5;3.3;;;;;;;10.79;68.95313;955.8434;;;;
2019/04/25 03:29:26;;;;;;;6.5;2.8;;;;;;;10.8;65.11328;955.7823;;;;
2019/04/25 03:31:51;;;;;;;5;2.8;;;;;;;10.85;64.91211;955.7283;;;;
2019/04/25 03:34:16;;;;;;;4.5;2.8;;;;;;;10.89;66.35352;955.7325;;;;
2019/04/25 03:36:41;;;;;;;4.5;2.9;;;;;;;10.91;66.7168;955.8065;;;;
2019/04/25 03:39:14;;;;;;;5.7;3.7;;;;;;;10.88;67.84668;955.8694;;;;
2019/04/25 03:41:39;;;;;;;7.2;3.5;;;;;;;10.88;68.41406;955.8142;;;;
2019/04/25 03:44:05;;;;;;;5;3.3;;;;;;;10.88;68.41406;955.8654;;;;
2019/04/25 03:47:18;;;;;;;5.4;3.2;;;;;;;10.88;67.97461;955.895;;;;
2019/04/25 03:49:43;;;;;;;5.7;3.1;;;;;;;10.88;68.4248;955.8614;;;;
2019/04/25 03:52:15;;;;;;;8.4;3.5;;;;;;;10.92;68.19824;955.7159;;;;
2019/04/25 03:54:42;;;;;;;7.3;3.5;;;;;;;10.95;68.4707;955.7634;;;;
2019/04/25 03:57:07;;;;;;;7;3.5;;;;;;;10.95;68.14648;955.7762;;;;
2019/04/25 03:59:33;;;;;;;9.2;3.2;;;;;;;10.97;68.08008;955.7859;;;;
2019/04/25 04:02:29;;;;;;;5.8;3.3;;;;;;;10.99;68.05957;955.8352;;;;
2019/04/25 04:04:55;;;;;;;6.9;3.5;;;;;;;10.98;68.38379;955.8057;;;;
2019/04/25 04:07:20;;;;;;;5.4;3.3;;;;;;;11.03;67.69727;955.8336;;;;
2019/04/25 04:09:45;;;;;;;7;3.7;;;;;;;11.07;67.28613;955.7994;;;;
2019/04/25 04:12:10;;;;;;;5;3.3;;;;;;;11.11;67.41895;955.8328;;;;
2019/04/25 04:16:13;;;;;;;7.5;3.6;;;;;;;11.08;68.83887;955.874;;;;
2019/04/25 04:18:41;;;;;;;6.6;3.7;;;;;;;11.12;68.3125;955.951;;;;
2019/04/25 04:21:16;;;;;;;6.2;3.5;;;;;;;10.99;69.02148;955.988;;;;
2019/04/25 04:23:40;;;;;;;6;3.6;;;;;;;10.96;68.83105;956.0698;;;;
2019/04/25 04:25:57;;;;;;;5.5;3.7;;;;;;;10.91;69.11328;956.0586;;;;
2019/04/25 04:28:22;;;;;;;7.1;3.6;;;;;;;10.88;68.86426;956.0239;;;;
2019/04/25 04:30:49;;;;;;;5.8;3.8;;;;;;;10.89;68.53125;956.0132;;;;
2019/04/25 04:33:14;;;;;;;7.4;3.9;;;;;;;10.88;68.44727;956.0239;;;;
2019/04/25 04:35:39;;;;;;;7.1;3.2;;;;;;;10.92;67.97852;956.0192;;;;
2019/04/25 04:38:08;;;;;;;5.9;4;;;;;;;10.92;68.33789;956.0488;;;;
2019/04/25 04:40:31;;;;;;;5.6;3.3;;;;;;;10.96;68.70508;956.0389;;;;
2019/04/25 04:42:56;;;;;;;3.8;2.5;;;;;;;10.97;64.3623;956.1572;;;;
2019/04/25 04:45:21;;;;;;;6.9;3.2;;;;;;;10.87;61.08301;956.1312;;;;
2019/04/25 04:47:49;;;;;;;5.9;3.8;;;;;;;10.69;65.05078;956.1453;;;;
2019/04/25 04:50:14;;;;;;;6.1;3.6;;;;;;;10.62;65.19141;956.1495;;;;
2019/04/25 04:52:40;;;;;;;5.1;3.3;;;;;;;10.48;65.91016;956.1628;;;;
2019/04/25 04:55:06;;;;;;;6.9;3.6;;;;;;;10.46;66.61133;956.1399;;;;
2019/04/25 04:57:30;;;;;;;5.5;3.6;;;;;;;10.51;66.89746;956.0869;;;;
2019/04/25 04:59:55;;;;;;;5.6;3.5;;;;;;;10.55;67.19238;956.0942;;;;
2019/04/25 05:04:56;;;;;;;6.4;4.2;;;;;;;10.65;68.74805;956.0691;;;;
2019/04/25 05:07:36;;;;;;;5.6;3.6;;;;;;;10.7;69.80957;956.0883;;;;
2019/04/25 05:09:35;;;;;;;6;3.7;;;;;;;10.81;69.79102;956.0966;;;;
2019/04/25 05:12:01;;;;;;;12;6.6;;;;;;;10.92;70.16895;956.04;;;;
2019/04/25 05:14:27;;;;;;;84.7;65.8;;;;;;;11;70.45801;956.0087;;;;
2019/04/25 05:16:54;;;;;;;17.1;11.2;;;;;;;11.13;69.66895;956.0772;;;;
2019/04/25 05:19:21;;;;;;;10.5;6.9;;;;;;;11.25;69.35254;956.0539;;;;
2019/04/25 05:21:45;;;;;;;5.9;3.6;;;;;;;11.34;71.42969;956.068;;;;
2019/04/25 05:24:10;;;;;;;53.4;40.8;;;;;;;11.68;69.68848;956.1397;;;;
2019/04/25 05:26:36;;;;;;;7.8;4.4;;;;;;;11.96;68.01465;956.1562;;;;
2019/04/25 05:29:15;;;;;;;6.3;3.1;;;;;;;12.03;68.55957;956.1728;;;;
2019/04/25 05:31:44;;;;;;;6.7;2.9;;;;;;;12.13;68.37988;956.1886;;;;
2019/04/25 05:34:06;;;;;;;6.4;3.2;;;;;;;12.22;67.95117;956.1908;;;;
2019/04/25 05:36:37;;;;;;;5.5;2.7;;;;;;;12.27;67.64551;956.2478;;;;
2019/04/25 05:38:56;;;;;;;4.4;2.9;;;;;;;12.37;67.5332;956.2527;;;;
2019/04/25 05:41:33;;;;;;;5.9;2.6;;;;;;;12.42;67.76367;956.1984;;;;
2019/04/25 05:43:49;;;;;;;7.1;2.6;;;;;;;12.5;66.36816;956.2141;;;;
2019/04/25 05:46:14;;;;;;;6.1;2.5;;;;;;;12.6;65.75684;956.1319;;;;
2019/04/25 05:48:43;;;;;;;6.3;2.6;;;;;;;12.73;65.47363;956.1443;;;;
2019/04/25 05:51:07;;;;;;;7.4;2.4;;;;;;;12.8;65.24023;956.1227;;;;
2019/04/25 05:53:37;;;;;;;7.3;2.3;;;;;;;12.9;64.79004;956.1263;;;;
2019/04/25 05:56:05;;;;;;;4.2;1.9;;;;;;;12.93;62.9209;956.0835;;;;
2019/04/25 05:58:38;;;;;;;3.9;1.8;;;;;;;13.06;61.02051;956.0237;;;;
2019/04/25 06:01:14;;;;;;;6.6;1.9;;;;;;;13.12;60.98242;956.0158;;;;
2019/04/25 06:03:44;;;;;;;67;48.6;;;;;;;13.3;62.81152;956.0606;;;;
2019/04/25 06:06:09;;;;;;;15.1;10.1;;;;;;;13.6;59.69727;956.0503;;;;
2019/04/25 06:09:04;;;;;;;5.1;2;;;;;;;13.75;59.00781;956.0244;;;;
2019/04/25 06:11:30;;;;;;;7.9;1.9;;;;;;;13.91;58.09668;956.0283;;;;
2019/04/25 06:14:04;;;;;;;5.7;1.8;;;;;;;13.96;56.95996;955.9833;;;;
2019/04/25 06:16:16;;;;;;;4.9;1.5;;;;;;;14.01;56.02246;955.9592;;;;
2019/04/25 06:18:48;;;;;;;4.4;1.7;;;;;;;14.07;56.76465;955.9945;;;;
2019/04/25 06:21:14;;;;;;;11.9;3.1;;;;;;;14.07;55.27148;955.9688;;;;
2019/04/25 06:24:15;;;;;;;8.9;2.2;;;;;;;14.2;55.68457;955.9754;;;;
2019/04/25 06:26:10;;;;;;;10.3;6.2;;;;;;;14.3;57.58789;955.9283;;;;
2019/04/25 06:28:36;;;;;;;85.1;66.6;;;;;;;14.54;57.53809;955.9072;;;;
2019/04/25 06:31:01;;;;;;;18.4;11.1;;;;;;;15.02;57.16797;955.9001;;;;
2019/04/25 06:33:30;;;;;;;7.1;1.7;;;;;;;15.5;51.5791;955.9903;;;;
2019/04/25 06:35:54;;;;;;;13.5;9.9;;;;;;;15.7;51.75684;955.9827;;;;
2019/04/25 06:38:19;;;;;;;13.3;8.2;;;;;;;15.96;49.9834;955.9709;;;;
2019/04/25 06:40:44;;;;;;;15.4;7.1;;;;;;;16.21;49.29688;955.9124;;;;
2019/04/25 06:43:09;;;;;;;7.4;3.9;;;;;;;16.44;47.67969;955.9781;;;;
2019/04/25 06:50:25;;;;;;;6.1;3;;;;;;;16.84;44.63672;956.0737;;;;
2019/04/25 06:52:50;;;;;;;9;3.5;;;;;;;17.02;44.94824;955.9698;;;;
2019/04/25 06:55:26;;;;;;;4.4;1.3;;;;;;;17.11;41.11719;955.947;;;;
2019/04/25 06:57:51;;;;;;;4.3;1;;;;;;;17.07;42.19336;955.9023;;;;
2019/04/25 07:00:18;;;;;;;4.4;1.4;;;;;;;16.91;41.13281;955.8486;;;;
2019/04/25 07:02:44;;;;;;;4.8;2.1;;;;;;;16.79;42.64844;955.8954;;;;
2019/04/25 07:05:10;;;;;;;7.1;1.5;;;;;;;16.72;41.11621;955.8373;;;;
2019/04/25 07:07:34;;;;;;;5.2;1.2;;;;;;;16.77;41.80078;955.8691;;;;
2019/04/25 07:10:02;;;;;;;4.6;1.2;;;;;;;16.7;41.92383;955.8328;;;;
2019/04/25 07:12:27;;;;;;;9.6;5.9;;;;;;;16.8;42.94336;955.8466;;;;
2019/04/25 07:14:53;;;;;;;12;8.3;;;;;;;16.86;43.61816;955.8683;;;;
2019/04/25 07:17:18;;;;;;;4.3;1.2;;;;;;;16.93;41.74609;955.8622;;;;
2019/04/25 07:19:43;;;;;;;4.1;1;;;;;;;16.96;42.46582;955.8742;;;;
2019/04/25 07:22:08;;;;;;;3.7;1;;;;;;;17.05;40.99414;955.9006;;;;
2019/04/25 07:24:33;;;;;;;5.7;1.4;;;;;;;17.12;42.06934;955.8812;;;;
2019/04/25 07:33:11;;;;;;;16.6;1.6;;;;;;;17.61;39.5293;955.7944;;;;
2019/04/25 07:35:28;;;;;;;7.6;1.4;;;;;;;17.63;38.6377;955.7352;;;;
2019/04/25 07:37:52;;;;;;;3.2;1.2;;;;;;;17.72;39.01074;955.6905;;;;
2019/04/25 07:40:19;;;;;;;4.8;1.2;;;;;;;17.84;39.35059;955.6937;;;;
2019/04/25 07:42:48;;;;;;;4.2;1.2;;;;;;;17.9;38.13184;955.6893;;;;
2019/04/25 07:45:13;;;;;;;6.1;1.1;;;;;;;18.08;38.31348;955.7338;;;;
2019/04/25 07:47:43;;;;;;;21.1;15.6;;;;;;;18.15;36.78809;955.6414;;;;
2019/04/25 07:50:08;;;;;;;6.4;1.5;;;;;;;18.21;37.00586;955.6541;;;;
2019/04/25 07:52:34;;;;;;;4.3;1.2;;;;;;;18.33;37.62793;955.6222;;;;
2019/04/25 07:54:59;;;;;;;11.2;5.7;;;;;;;18.48;38.67676;955.5034;;;;
2019/04/25 07:57:28;;;;;;;7.6;1.4;;;;;;;18.61;36.95703;955.5444;;;;
2019/04/25 07:59:53;;;;;;;5.1;1;;;;;;;18.72;37.07129;955.4914;;;;
2019/04/25 08:02:18;;;;;;;4.4;1.1;;;;;;;18.83;37.58789;955.4745;;;;
2019/04/25 08:04:43;;;;;;;4;1.3;;;;;;;19.01;37.40332;955.4846;;;;
2019/04/25 08:07:10;;;;;;;5.1;1;;;;;;;19.15;36.88379;955.4719;;;;
2019/04/25 08:09:35;;;;;;;6.2;1.3;;;;;;;19.24;35.93555;955.4481;;;;
2019/04/25 08:12:02;;;;;;;4.2;1.2;;;;;;;19.39;36.14844;955.4623;;;;
2019/04/25 08:18:37;;;;;;;5.4;1.2;;;;;;;19.75;34.72461;955.5217;;;;
2019/04/25 08:21:03;;;;;;;5.4;1;;;;;;;19.83;35.9834;955.4706;;;;
2019/04/25 08:23:29;;;;;;;5.5;1.4;;;;;;;19.95;35.72168;955.4158;;;;
2019/04/25 08:25:54;;;;;;;4.8;1.1;;;;;;;20.1;36.20605;955.4348;;;;
2019/04/25 08:28:22;;;;;;;8.8;1.2;;;;;;;20.23;35.74316;955.4525;;;;
2019/04/25 08:30:47;;;;;;;5;1.2;;;;;;;20.36;35.50586;955.3926;;;;
2019/04/25 08:33:11;;;;;;;3.7;1.1;;;;;;;20.46;34.54297;955.3541;;;;
2019/04/25 08:35:36;;;;;;;3.8;1;;;;;;;20.6;35.1582;955.3003;;;;
2019/04/25 08:38:02;;;;;;;4;1.2;;;;;;;20.59;34.42383;955.3326;;;;
2019/04/25 08:40:30;;;;;;;4.4;1.3;;;;;;;20.71;34.53906;955.3345;;;;
2019/04/25 08:42:58;;;;;;;5.9;1.4;;;;;;;20.8;33.54004;955.3622;;;;
2019/04/25 08:45:24;;;;;;;5.7;1.2;;;;;;;20.97;34.33496;955.3214;;;;
2019/04/25 08:47:48;;;;;;;4.3;1.2;;;;;;;21.12;34.80859;955.3606;;;;
2019/04/25 08:50:36;;;;;;;6.9;1.1;;;;;;;21.22;32.07715;955.4188;;;;
2019/04/25 08:52:48;;;;;;;6.4;1.2;;;;;;;21.28;34.38281;955.4461;;;;
2019/04/25 08:57:53;;;;;;;5.8;1.2;;;;;;;21.51;33.74805;955.3345;;;;
2019/04/25 09:00:13;;;;;;;5.2;1.3;;;;;;;21.61;32.98438;955.3293;;;;
2019/04/25 09:07:27;;;;;;;4.5;1.4;;;;;;;21.88;32.00684;955.3491;;;;
2019/04/25 09:09:52;;;;;;;3.6;1.3;;;;;;;21.93;32.30762;955.3658;;;;
2019/04/25 09:12:17;;;;;;;3.3;1.3;;;;;;;22.02;31.18555;955.3038;;;;
2019/04/25 09:14:43;;;;;;;5.2;1.5;;;;;;;22.1;32.12988;955.3153;;;;
2019/04/25 09:17:11;;;;;;;9.5;1.7;;;;;;;22.27;33.50781;955.2656;;;;
2019/04/25 09:21:07;;;;;;;5.1;1.5;;;;;;;22.52;32.3623;955.3117;;;;
2019/04/25 09:23:32;;;;;;;5.9;1.1;;;;;;;22.67;32.02832;955.16;;;;
2019/04/25 09:26:00;;;;;;;5.2;1.3;;;;;;;22.8;30.87109;955.2211;;;;
2019/04/25 09:28:26;;;;;;;4;1.1;;;;;;;22.87;31.16211;955.252;;;;
2019/04/25 09:33:10;;;;;;;6.4;1.3;;;;;;;23.14;30.69336;955.1516;;;;
2019/04/25 09:35:35;;;;;;;4.6;1.2;;;;;;;23.31;31.82422;955.1295;;;;
2019/04/25 09:38:03;;;;;;;3.4;1.3;;;;;;;23.46;31.38184;955.0895;;;;
2019/04/25 09:40:28;;;;;;;6.3;1.7;;;;;;;23.56;32.1875;955.072;;;;
2019/04/25 09:42:54;;;;;;;6.3;1.3;;;;;;;23.63;30.78711;954.9985;;;;
2019/04/25 09:48:45;;;;;;;4.2;1.3;;;;;;;23.92;30.12598;955.0261;;;;
2019/04/25 09:51:17;;;;;;;6.2;1.3;;;;;;;24.01;29.9541;954.965;;;;
2019/04/25 09:53:31;;;;;;;3.4;1.2;;;;;;;24.22;30.21875;955.0014;;;;
2019/04/25 09:56:00;;;;;;;4.9;1.3;;;;;;;24.42;30.38672;954.9706;;;;
2019/04/25 10:01:28;;;;;;;3.9;1.4;;;;;;;24.47;29.41113;954.9437;;;;
2019/04/25 10:03:59;;;;;;;3.9;1.1;;;;;;;24.61;28.88281;954.8441;;;;
2019/04/25 10:06:24;;;;;;;8.8;1.5;;;;;;;24.65;28.27637;954.9064;;;;
2019/04/25 10:08:51;;;;;;;6.3;1.4;;;;;;;24.87;29.27051;954.9352;;;;
2019/04/25 10:11:16;;;;;;;4.4;1.2;;;;;;;25;28.10645;954.9077;;;;
2019/04/25 10:13:44;;;;;;;7;1.4;;;;;;;25.16;29.22949;954.8162;;;;
2019/04/25 10:16:10;;;;;;;3.7;1.2;;;;;;;25.32;26.97852;954.7302;;;;
2019/04/25 10:18:35;;;;;;;7.4;1.4;;;;;;;25.59;28.39551;954.7444;;;;
2019/04/25 10:21:04;;;;;;;6.1;1.3;;;;;;;25.79;27.78516;954.7467;;;;
2019/04/25 10:23:28;;;;;;;10.5;1.8;;;;;;;25.98;27.75;954.6697;;;;
2019/04/25 10:25:55;;;;;;;4.6;1.3;;;;;;;26.26;25.89648;954.5875;;;;
2019/04/25 10:28:19;;;;;;;4.4;1.2;;;;;;;26.45;25.45117;954.5814;;;;
2019/04/25 10:30:45;;;;;;;5.5;1.4;;;;;;;26.51;24.71094;954.6092;;;;
2019/04/25 10:33:10;;;;;;;5.9;1.3;;;;;;;26.56;26.0459;954.5911;;;;
2019/04/25 10:35:35;;;;;;;4.1;1.4;;;;;;;26.61;25.53223;954.4983;;;;
2019/04/25 10:38:01;;;;;;;4.8;1.4;;;;;;;26.71;24.62695;954.4738;;;;
2019/04/25 10:40:29;;;;;;;4.7;1.4;;;;;;;26.76;24.36523;954.4033;;;;
2019/04/25 10:42:56;;;;;;;5;1.6;;;;;;;26.92;23.70117;954.3419;;;;
2019/04/25 10:45:21;;;;;;;3.4;1.3;;;;;;;27.12;23.20801;954.377;;;;
2019/04/25 10:47:53;;;;;;;3.2;1.1;;;;;;;27.2;22.16602;954.3045;;;;
2019/04/25 10:50:16;;;;;;;3.3;1;;;;;;;27.26;20.06641;954.3411;;;;
2019/04/25 10:52:43;;;;;;;2.1;1.3;;;;;;;27.4;21.93555;954.2997;;;;
2019/04/25 10:55:12;;;;;;;2.6;1.1;;;;;;;27.53;21.3291;954.3283;;;;
2019/04/25 10:57:52;;;;;;;3.1;1;;;;;;;27.52;21.78516;954.2455;;;;
2019/04/25 11:00:24;;;;;;;3.4;1.1;;;;;;;27.53;21.4248;954.2888;;;;
2019/04/25 11:02:48;;;;;;;4.6;1.1;;;;;;;27.2;19.93164;954.2874;;;;
2019/04/25 11:05:18;;;;;;;1.4;1;;;;;;;27.01;18.98633;954.3074;;;;
2019/04/25 11:07:44;;;;;;;2.2;1;;;;;;;26.92;18.99512;954.3064;;;;
2019/04/25 11:10:08;;;;;;;1.8;0.9;;;;;;;26.75;19.68359;954.2734;;;;
2019/04/25 11:12:45;;;;;;;7.8;1.2;;;;;;;26.84;21.59668;954.274;;;;
2019/04/25 11:15:09;;;;;;;2.9;0.9;;;;;;;26.92;20.17188;954.2012;;;;
2019/04/25 11:17:34;;;;;;;3.1;0.9;;;;;;;27.06;19.91309;954.2576;;;;
2019/04/25 11:20:01;;;;;;;1.9;0.9;;;;;;;27.34;19.87793;954.2197;;;;
2019/04/25 11:22:42;;;;;;;2.5;1.1;;;;;;;27.87;18.91504;954.0844;;;;
2019/04/25 11:25:07;;;;;;;2.8;1.1;;;;;;;28.34;18.62109;954.1181;;;;
2019/04/25 11:27:32;;;;;;;2.1;1;;;;;;;28.68;17.99609;954.1033;;;;
2019/04/25 11:29:57;;;;;;;2.7;1.2;;;;;;;29.05;17.79395;954.0806;;;;
2019/04/25 11:32:29;;;;;;;1.5;0.9;;;;;;;29.24;17.51172;954.0906;;;;
2019/04/25 11:34:53;;;;;;;2.9;1.1;;;;;;;29.44;17.70117;954.0486;;;;
2019/04/25 11:37:20;;;;;;;1.2;1;;;;;;;29.29;15.40137;953.9836;;;;
2019/04/25 11:40:30;;;;;;;3;1.1;;;;;;;29.1;17.2168;953.9789;;;;
2019/04/25 11:42:15;;;;;;;2.7;1;;;;;;;28.86;17.78613;953.9347;;;;
2019/04/25 11:44:38;;;;;;;3.9;1;;;;;;;28.82;18.24316;953.9163;;;;
2019/04/25 11:47:03;;;;;;;2.8;1.3;;;;;;;28.8;17.53125;953.9023;;;;
2019/04/25 11:49:28;;;;;;;1.3;0.9;;;;;;;28.86;17.48535;953.882;;;;
2019/04/25 11:51:57;;;;;;;1.3;0.9;;;;;;;28.81;18.54395;953.8217;;;;
2019/04/25 11:54:22;;;;;;;2.3;1.1;;;;;;;28.79;19.19434;953.8619;;;;
2019/04/25 11:56:47;;;;;;;4.3;1.1;;;;;;;28.4;17.22656;953.7913;;;;
2019/04/25 11:59:13;;;;;;;2.6;0.8;;;;;;;28;15.92285;953.7877;;;;
2019/04/25 12:01:40;;;;;;;2.1;0.8;;;;;;;27.84;17.73438;953.8141;;;;
2019/04/25 12:04:06;;;;;;;1.9;0.7;;;;;;;27.94;17.62988;953.8075;;;;
2019/04/25 12:06:30;;;;;;;3.9;1.1;;;;;;;27.67;16.41602;953.7477;;;;
2019/04/25 12:08:57;;;;;;;2.4;1;;;;;;;27.59;16.88281;953.7851;;;;
2019/04/25 12:11:22;;;;;;;1.9;0.9;;;;;;;27.51;16.51855;953.6831;;;;
2019/04/25 12:13:47;;;;;;;3.1;0.8;;;;;;;27.62;17.23242;953.7001;;;;
2019/04/25 12:16:21;;;;;;;1.9;0.8;;;;;;;27.95;17.59375;953.7232;;;;
2019/04/25 12:18:46;;;;;;;2.8;0.8;;;;;;;28.22;17.40039;953.6555;;;;
2019/04/25 12:21:12;;;;;;;1.9;0.9;;;;;;;28.4;15.73242;953.6898;;;;
2019/04/25 12:23:36;;;;;;;1.5;1;;;;;;;28.32;15.50098;953.6542;;;;
2019/04/25 12:26:05;;;;;;;2.5;0.9;;;;;;;28.45;17.25195;953.6885;;;;
2019/04/25 12:28:33;;;;;;;1.7;0.8;;;;;;;28.51;14.76074;953.6141;;;;
2019/04/25 12:31:04;;;;;;;3.1;0.7;;;;;;;28.57;14.16016;953.5361;;;;
2019/04/25 12:33:29;;;;;;;3.9;1.6;;;;;;;28.69;16.03223;953.5207;;;;
2019/04/25 12:36:09;;;;;;;2.4;1.2;;;;;;;28.74;15.22656;953.502;;;;
2019/04/25 12:38:38;;;;;;;1.7;1;;;;;;;29.16;16.29004;953.4641;;;;
2019/04/25 12:41:17;;;;;;;2.9;0.8;;;;;;;29.51;15.34863;953.5109;;;;
2019/04/25 12:43:51;;;;;;;2.2;0.9;;;;;;;29.55;15.50684;953.4727;;;;
2019/04/25 12:46:21;;;;;;;4.1;0.9;;;;;;;29.56;15.22949;953.5728;;;;
2019/04/25 12:48:32;;;;;;;2.2;0.9;;;;;;;29.42;13.88477;953.5314;;;;
2019/04/25 12:50:58;;;;;;;1.9;1.1;;;;;;;29.12;13.73047;953.5656;;;;
2019/04/25 12:53:36;;;;;;;3.4;0.9;;;;;;;29.16;14.55273;953.4509;;;;
2019/04/25 12:56:03;;;;;;;1.8;0.8;;;;;;;29.22;14.05957;953.4833;;;;
2019/04/25 12:58:29;;;;;;;3.2;0.9;;;;;;;29.42;15.28516;953.3582;;;;
2019/04/25 13:01:02;;;;;;;2.6;0.8;;;;;;;29.36;14.7998;953.4327;;;;
2019/04/25 13:03:46;;;;;;;2.3;1;;;;;;;29.51;16.33887;953.4411;;;;
2019/04/25 13:06:30;;;;;;;1.2;0.8;;;;;;;29.71;15.85059;953.4186;;;;
2019/04/25 13:09:00;;;;;;;1.3;0.7;;;;;;;29.85;16.36328;953.3452;;;;
2019/04/25 13:11:25;;;;;;;1.9;0.8;;;;;;;29.95;15.56836;953.3904;;;;
2019/04/25 13:13:52;;;;;;;4.9;1;;;;;;;29.77;14.75293;953.2025;;;;
2019/04/25 13:16:17;;;;;;;3.3;0.9;;;;;;;29.65;14.8584;953.2751;;;;
2019/04/25 13:18:43;;;;;;;2.2;0.7;;;;;;;29.16;14.7207;953.2548;;;;
2019/04/25 13:21:08;;;;;;;2.5;1;;;;;;;29.1;16.25098;953.2671;;;;
2019/04/25 13:23:38;;;;;;;1.5;0.8;;;;;;;29.03;16.03223;953.2193;;;;
2019/04/25 13:26:21;;;;;;;1.6;0.8;;;;;;;29.26;16.98145;953.225;;;;
2019/04/25 13:29:07;;;;;;;3.3;1.1;;;;;;;29.07;15.4541;953.2813;;;;
2019/04/25 13:31:34;;;;;;;49.2;3.8;;;;;;;28.83;15.6748;953.1956;;;;
2019/04/25 13:34:03;;;;;;;4.2;1;;;;;;;28.25;16.2207;953.2469;;;;
2019/04/25 13:36:18;;;;;;;2.2;0.9;;;;;;;28.13;15.81934;953.1998;;;;
2019/04/25 13:38:43;;;;;;;4.5;1.3;;;;;;;28.28;16.49902;953.2274;;;;
2019/04/25 13:41:11;;;;;;;2.4;1;;;;;;;28.48;16.26563;953.2177;;;;
2019/04/25 13:43:37;;;;;;;3.1;1.1;;;;;;;28.54;15.71289;953.2051;;;;
2019/04/25 13:46:05;;;;;;;3.5;1;;;;;;;28.79;16.77051;953.1505;;;;
2019/04/25 13:48:31;;;;;;;2.4;1.1;;;;;;;29.22;15.76172;953.18;;;;
2019/04/25 13:51:01;;;;;;;3.3;1;;;;;;;29.24;15.76172;953.1412;;;;
2019/04/25 13:53:26;;;;;;;3.8;2.4;;;;;;;29.23;16.14746;953.1614;;;;
2019/04/25 13:55:51;;;;;;;3.1;1.1;;;;;;;29.22;17.28125;953.1328;;;;
2019/04/25 13:58:16;;;;;;;3.1;1.1;;;;;;;29.04;15.71875;953.1161;;;;
2019/04/25 14:00:42;;;;;;;2.3;0.9;;;;;;;28.75;15.4668;953.1316;;;;
2019/04/25 14:03:07;;;;;;;1.8;1;;;;;;;28.79;16.7832;953.1451;;;;
2019/04/25 14:05:42;;;;;;;3.9;1.2;;;;;;;29.22;17.75293;952.9861;;;;
2019/04/25 14:08:07;;;;;;;5.1;1;;;;;;;29.6;16.95801;952.8642;;;;
2019/04/25 14:10:32;;;;;;;2.8;0.8;;;;;;;29.6;14.84473;953.0133;;;;
2019/04/25 14:12:57;;;;;;;3.5;1.1;;;;;;;29.73;16.29785;952.9747;;;;
2019/04/25 14:15:24;;;;;;;3.7;1.1;;;;;;;29.94;16.07617;952.9906;;;;
2019/04/25 14:18:16;;;;;;;2.7;0.9;;;;;;;29.96;16.23438;952.9707;;;;
2019/04/25 14:20:29;;;;;;;11.5;1.6;;;;;;;30.19;15.8916;952.9305;;;;
2019/04/25 14:22:49;;;;;;;2.7;1;;;;;;;30.52;15.83105;952.9614;;;;
2019/04/25 14:25:15;;;;;;;2.4;1;;;;;;;30.86;14.88574;952.9037;;;;
2019/04/25 14:27:39;;;;;;;4.4;1;;;;;;;31.11;15.24512;952.8845;;;;
2019/04/25 14:30:07;;;;;;;2;0.8;;;;;;;31.01;13.84863;952.8128;;;;
2019/04/25 14:32:30;;;;;;;2.9;0.9;;;;;;;30.97;13.30273;952.7603;;;;
2019/04/25 14:34:57;;;;;;;3.3;1.2;;;;;;;31.23;14.12207;952.7012;;;;
2019/04/25 14:37:26;;;;;;;3.4;0.9;;;;;;;31.04;12.69824;952.7288;;;;
2019/04/25 14:39:50;;;;;;;3.6;0.9;;;;;;;30.59;12.50391;952.7225;;;;
2019/04/25 14:42:16;;;;;;;5.1;1;;;;;;;30.78;13.88965;952.7086;;;;
2019/04/25 14:44:46;;;;;;;6.4;1;;;;;;;30.62;12.28711;952.7728;;;;
2019/04/25 14:47:19;;;;;;;1.7;1;;;;;;;30.79;12.47363;952.728;;;;
2019/04/25 14:49:45;;;;;;;2.2;0.7;;;;;;;30.83;14.00098;952.7989;;;;
2019/04/25 14:52:12;;;;;;;2.3;1;;;;;;;30.94;13.44629;952.7271;;;;
2019/04/25 14:54:49;;;;;;;3.1;1;;;;;;;30.94;14.30664;952.6819;;;;
2019/04/25 14:57:10;;;;;;;4.5;0.9;;;;;;;31.2;13.40625;952.6928;;;;
2019/04/25 14:59:29;;;;;;;5.4;1.2;;;;;;;31.56;13.46484;952.6608;;;;
2019/04/25 15:01:57;;;;;;;3.9;1;;;;;;;31.97;14.61914;952.6983;;;;
2019/04/25 15:04:22;;;;;;;3.7;1.3;;;;;;;32.09;13.74805;952.7075;;;;
2019/04/25 15:06:47;;;;;;;4.8;1.1;;;;;;;32.39;13.70898;952.6995;;;;
2019/04/25 15:09:14;;;;;;;3.1;0.9;;;;;;;32.59;12.99707;952.616;;;;
2019/04/25 15:11:39;;;;;;;2;1.1;;;;;;;32.22;13.6543;952.702;;;;
2019/04/25 15:14:04;;;;;;;4.4;1.1;;;;;;;32.06;14.28125;952.6046;;;;
2019/04/25 15:16:30;;;;;;;3.5;1.1;;;;;;;31.65;13.5166;952.592;;;;
2019/04/25 15:19:00;;;;;;;3.2;1.1;;;;;;;31.45;12.64941;952.6519;;;;
2019/04/25 15:21:29;;;;;;;3.3;1.1;;;;;;;31.52;13.17285;952.6556;;;;
2019/04/25 15:23:55;;;;;;;3.7;1.1;;;;;;;31.78;14.69727;952.6262;;;;